sensor_id;sensor_type;location;lat;lon;timestamp;temperature;humidity
21259;DHT22;10787;53.364;-1.480;2023-02-01T00:02:18;6.80;99.90
21259;DHT22;10787;53.364;-1.480;2023-02-01T00:04:44;6.80;99.90
21259;DHT22;10787;53.364;-1.480;2023-02-01T00:07:09;6.90;99.90
21259;DHT22;10787;53.364;-1.480;2023-02-01T00:09:35;7.00;99.90
21259;DHT22;10787;53.364;-1.480;2023-02-01T00:12:01;7.10;99.90
21259;DHT22;10787;53.364;-1.480;2023-02-01T00:14:28;7.10;99.90
21259;DHT22;10787;53.364;-1.480;2023-02-01T00:16:54;7.10;99.90
21259;DHT22;10787;53.364;-1.480;2023-02-01T00:19:20;7.10;99.90
21259;DHT22;10787;53.364;-1.480;2023-02-01T00:21:46;7.10;99.90
21259;DHT22;10787;53.364;-1.480;2023-02-01T00:24:12;7.20;99.90
21259;DHT22;10787;53.364;-1.480;2023-02-01T00:26:40;7.20;99.90
21259;DHT22;10787;53.364;-1.480;2023-02-01T00:29:15;7.20;99.90
21259;DHT22;10787;53.364;-1.480;2023-02-01T00:31:41;7.30;99.90
21259;DHT22;10787;53.364;-1.480;2023-02-01T00:34:09;7.30;99.90
21259;DHT22;10787;53.364;-1.480;2023-02-01T00:36:35;7.30;99.90
21259;DHT22;10787;53.364;-1.480;2023-02-01T00:39:01;7.30;99.90
21259;DHT22;10787;53.364;-1.480;2023-02-01T00:41:27;7.30;99.90
21259;DHT22;10787;53.364;-1.480;2023-02-01T00:43:53;7.30;99.90
21259;DHT22;10787;53.364;-1.480;2023-02-01T00:46:19;7.20;99.90
21259;DHT22;10787;53.364;-1.480;2023-02-01T00:48:45;7.20;99.90
21259;DHT22;10787;53.364;-1.480;2023-02-01T00:51:17;7.20;99.90
21259;DHT22;10787;53.364;-1.480;2023-02-01T00:53:43;7.20;99.90
21259;DHT22;10787;53.364;-1.480;2023-02-01T00:56:10;7.20;99.90
21259;DHT22;10787;53.364;-1.480;2023-02-01T00:58:35;7.30;99.90
21259;DHT22;10787;53.364;-1.480;2023-02-01T01:01:12;7.30;99.90
21259;DHT22;10787;53.364;-1.480;2023-02-01T01:03:44;7.30;99.90
21259;DHT22;10787;53.364;-1.480;2023-02-01T01:06:12;7.30;99.90
21259;DHT22;10787;53.364;-1.480;2023-02-01T01:08:39;7.30;99.90
21259;DHT22;10787;53.364;-1.480;2023-02-01T01:11:26;7.30;99.90
21259;DHT22;10787;53.364;-1.480;2023-02-01T01:13:55;7.30;99.90
21259;DHT22;10787;53.364;-1.480;2023-02-01T01:16:22;7.30;99.90
21259;DHT22;10787;53.364;-1.480;2023-02-01T01:18:48;7.30;99.90
21259;DHT22;10787;53.364;-1.480;2023-02-01T01:21:15;7.30;99.90
21259;DHT22;10787;53.364;-1.480;2023-02-01T01:23:42;7.40;99.90
21259;DHT22;10787;53.364;-1.480;2023-02-01T01:26:11;7.40;99.90
21259;DHT22;10787;53.364;-1.480;2023-02-01T01:28:37;7.20;99.90
21259;DHT22;10787;53.364;-1.480;2023-02-01T01:31:03;6.90;99.90
21259;DHT22;10787;53.364;-1.480;2023-02-01T01:33:29;6.70;99.90
21259;DHT22;10787;53.364;-1.480;2023-02-01T01:35:55;6.60;99.90
21259;DHT22;10787;53.364;-1.480;2023-02-01T01:38:20;6.40;99.90
21259;DHT22;10787;53.364;-1.480;2023-02-01T01:40:47;6.30;99.90
21259;DHT22;10787;53.364;-1.480;2023-02-01T01:43:17;6.30;99.90
21259;DHT22;10787;53.364;-1.480;2023-02-01T01:45:45;6.20;99.90
21259;DHT22;10787;53.364;-1.480;2023-02-01T01:48:26;6.20;99.90
21259;DHT22;10787;53.364;-1.480;2023-02-01T01:50:59;6.10;99.90
21259;DHT22;10787;53.364;-1.480;2023-02-01T01:53:30;6.20;99.90
21259;DHT22;10787;53.364;-1.480;2023-02-01T01:55:57;6.30;99.90
21259;DHT22;10787;53.364;-1.480;2023-02-01T01:58:26;6.30;99.90
21259;DHT22;10787;53.364;-1.480;2023-02-01T02:00:53;6.40;99.90
21259;DHT22;10787;53.364;-1.480;2023-02-01T02:03:22;6.40;99.90
21259;DHT22;10787;53.364;-1.480;2023-02-01T02:05:50;6.50;99.90
21259;DHT22;10787;53.364;-1.480;2023-02-01T02:08:18;6.50;99.90
21259;DHT22;10787;53.364;-1.480;2023-02-01T02:10:47;6.50;99.90
21259;DHT22;10787;53.364;-1.480;2023-02-01T02:13:31;6.60;99.90
21259;DHT22;10787;53.364;-1.480;2023-02-01T02:27:51;6.60;99.90
21259;DHT22;10787;53.364;-1.480;2023-02-01T02:36:01;6.60;99.90
21259;DHT22;10787;53.364;-1.480;2023-02-01T02:38:41;6.60;99.90
21259;DHT22;10787;53.364;-1.480;2023-02-01T02:41:18;6.70;99.90
21259;DHT22;10787;53.364;-1.480;2023-02-01T02:44:23;6.70;99.90
21259;DHT22;10787;53.364;-1.480;2023-02-01T02:53:11;6.70;99.90
21259;DHT22;10787;53.364;-1.480;2023-02-01T02:55:56;6.70;99.90
21259;DHT22;10787;53.364;-1.480;2023-02-01T02:58:42;6.80;99.90
21259;DHT22;10787;53.364;-1.480;2023-02-01T03:01:28;6.80;99.90
21259;DHT22;10787;53.364;-1.480;2023-02-01T03:04:12;6.80;99.90
21259;DHT22;10787;53.364;-1.480;2023-02-01T03:06:43;6.60;99.90
21259;DHT22;10787;53.364;-1.480;2023-02-01T03:09:22;6.50;99.90
21259;DHT22;10787;53.364;-1.480;2023-02-01T03:11:51;6.40;99.90
21259;DHT22;10787;53.364;-1.480;2023-02-01T03:14:40;6.50;99.90
21259;DHT22;10787;53.364;-1.480;2023-02-01T03:17:13;6.50;99.90
21259;DHT22;10787;53.364;-1.480;2023-02-01T03:19:48;6.50;99.90
21259;DHT22;10787;53.364;-1.480;2023-02-01T03:22:24;6.50;99.90
21259;DHT22;10787;53.364;-1.480;2023-02-01T03:24:54;6.50;99.90
21259;DHT22;10787;53.364;-1.480;2023-02-01T03:32:23;6.40;99.90
21259;DHT22;10787;53.364;-1.480;2023-02-01T03:34:50;6.30;99.90
21259;DHT22;10787;53.364;-1.480;2023-02-01T03:37:24;6.40;99.90
21259;DHT22;10787;53.364;-1.480;2023-02-01T03:40:00;6.40;99.90
21259;DHT22;10787;53.364;-1.480;2023-02-01T03:42:28;6.40;99.90
21259;DHT22;10787;53.364;-1.480;2023-02-01T03:47:35;6.50;99.90
21259;DHT22;10787;53.364;-1.480;2023-02-01T03:50:09;6.50;99.90
21259;DHT22;10787;53.364;-1.480;2023-02-01T03:55:08;6.60;99.90
21259;DHT22;10787;53.364;-1.480;2023-02-01T03:57:41;6.60;99.90
21259;DHT22;10787;53.364;-1.480;2023-02-01T04:00:23;6.70;99.90
21259;DHT22;10787;53.364;-1.480;2023-02-01T04:02:49;6.60;99.90
21259;DHT22;10787;53.364;-1.480;2023-02-01T04:05:15;6.70;99.90
21259;DHT22;10787;53.364;-1.480;2023-02-01T04:07:41;6.80;99.90
21259;DHT22;10787;53.364;-1.480;2023-02-01T04:10:08;6.80;99.90
21259;DHT22;10787;53.364;-1.480;2023-02-01T04:12:34;6.80;99.90
21259;DHT22;10787;53.364;-1.480;2023-02-01T04:14:59;6.70;99.90
21259;DHT22;10787;53.364;-1.480;2023-02-01T04:17:25;6.70;99.90
21259;DHT22;10787;53.364;-1.480;2023-02-01T04:19:51;6.70;99.90
21259;DHT22;10787;53.364;-1.480;2023-02-01T04:22:16;6.70;99.90
21259;DHT22;10787;53.364;-1.480;2023-02-01T04:24:42;6.70;99.90
21259;DHT22;10787;53.364;-1.480;2023-02-01T04:27:08;6.70;99.90
21259;DHT22;10787;53.364;-1.480;2023-02-01T04:29:33;6.70;99.90
21259;DHT22;10787;53.364;-1.480;2023-02-01T04:31:59;6.70;99.90
21259;DHT22;10787;53.364;-1.480;2023-02-01T04:34:25;6.70;99.90
21259;DHT22;10787;53.364;-1.480;2023-02-01T04:36:51;6.70;99.90
21259;DHT22;10787;53.364;-1.480;2023-02-01T04:39:17;6.80;99.90
21259;DHT22;10787;53.364;-1.480;2023-02-01T04:41:43;6.80;99.90
21259;DHT22;10787;53.364;-1.480;2023-02-01T04:44:14;6.80;99.90
21259;DHT22;10787;53.364;-1.480;2023-02-01T04:46:41;6.70;99.90
21259;DHT22;10787;53.364;-1.480;2023-02-01T04:49:08;6.70;99.90
21259;DHT22;10787;53.364;-1.480;2023-02-01T04:51:34;6.80;99.90
21259;DHT22;10787;53.364;-1.480;2023-02-01T04:54:00;6.80;99.90
21259;DHT22;10787;53.364;-1.480;2023-02-01T04:56:26;6.80;99.90
21259;DHT22;10787;53.364;-1.480;2023-02-01T04:58:52;6.80;99.90
21259;DHT22;10787;53.364;-1.480;2023-02-01T05:01:18;6.80;99.90
21259;DHT22;10787;53.364;-1.480;2023-02-01T05:03:44;6.80;99.90
21259;DHT22;10787;53.364;-1.480;2023-02-01T05:06:09;6.80;99.90
21259;DHT22;10787;53.364;-1.480;2023-02-01T05:08:35;6.80;99.90
21259;DHT22;10787;53.364;-1.480;2023-02-01T05:11:01;6.80;99.90
21259;DHT22;10787;53.364;-1.480;2023-02-01T05:13:30;6.90;99.90
21259;DHT22;10787;53.364;-1.480;2023-02-01T05:16:15;6.80;99.90
21259;DHT22;10787;53.364;-1.480;2023-02-01T05:18:41;6.80;99.90
21259;DHT22;10787;53.364;-1.480;2023-02-01T05:21:07;6.80;99.90
21259;DHT22;10787;53.364;-1.480;2023-02-01T05:23:33;6.90;99.90
21259;DHT22;10787;53.364;-1.480;2023-02-01T05:26:18;6.80;99.90
21259;DHT22;10787;53.364;-1.480;2023-02-01T05:28:44;6.80;99.90
21259;DHT22;10787;53.364;-1.480;2023-02-01T05:31:11;6.70;99.90
21259;DHT22;10787;53.364;-1.480;2023-02-01T05:33:37;6.80;99.90
21259;DHT22;10787;53.364;-1.480;2023-02-01T05:36:03;6.80;99.90
21259;DHT22;10787;53.364;-1.480;2023-02-01T05:38:29;6.90;99.90
21259;DHT22;10787;53.364;-1.480;2023-02-01T05:40:57;6.90;99.90
21259;DHT22;10787;53.364;-1.480;2023-02-01T05:43:23;6.90;99.90
21259;DHT22;10787;53.364;-1.480;2023-02-01T05:45:49;6.90;99.90
21259;DHT22;10787;53.364;-1.480;2023-02-01T05:48:14;6.90;99.90
21259;DHT22;10787;53.364;-1.480;2023-02-01T05:50:40;6.90;99.90
21259;DHT22;10787;53.364;-1.480;2023-02-01T05:53:06;6.90;99.90
21259;DHT22;10787;53.364;-1.480;2023-02-01T05:55:32;6.90;99.90
21259;DHT22;10787;53.364;-1.480;2023-02-01T05:57:57;6.90;99.90
21259;DHT22;10787;53.364;-1.480;2023-02-01T06:00:23;6.90;99.90
21259;DHT22;10787;53.364;-1.480;2023-02-01T06:02:49;7.00;99.90
21259;DHT22;10787;53.364;-1.480;2023-02-01T06:05:15;7.00;99.90
21259;DHT22;10787;53.364;-1.480;2023-02-01T06:07:40;6.90;99.90
21259;DHT22;10787;53.364;-1.480;2023-02-01T06:10:08;7.00;99.90
21259;DHT22;10787;53.364;-1.480;2023-02-01T06:12:34;7.00;99.90
21259;DHT22;10787;53.364;-1.480;2023-02-01T06:14:59;7.00;99.90
21259;DHT22;10787;53.364;-1.480;2023-02-01T06:17:25;7.10;99.90
21259;DHT22;10787;53.364;-1.480;2023-02-01T06:19:51;7.10;99.90
21259;DHT22;10787;53.364;-1.480;2023-02-01T06:22:17;7.10;99.90
21259;DHT22;10787;53.364;-1.480;2023-02-01T06:24:43;7.10;99.90
21259;DHT22;10787;53.364;-1.480;2023-02-01T06:27:09;7.10;99.90
21259;DHT22;10787;53.364;-1.480;2023-02-01T06:29:35;7.10;99.90
21259;DHT22;10787;53.364;-1.480;2023-02-01T06:32:01;7.10;99.90
21259;DHT22;10787;53.364;-1.480;2023-02-01T06:34:27;7.10;99.90
21259;DHT22;10787;53.364;-1.480;2023-02-01T06:36:52;7.10;99.90
21259;DHT22;10787;53.364;-1.480;2023-02-01T06:39:20;7.10;99.90
21259;DHT22;10787;53.364;-1.480;2023-02-01T06:41:48;7.10;99.90
21259;DHT22;10787;53.364;-1.480;2023-02-01T06:44:14;7.20;99.90
21259;DHT22;10787;53.364;-1.480;2023-02-01T06:46:40;7.30;99.90
21259;DHT22;10787;53.364;-1.480;2023-02-01T06:49:06;7.30;99.90
21259;DHT22;10787;53.364;-1.480;2023-02-01T06:51:32;7.30;99.90
21259;DHT22;10787;53.364;-1.480;2023-02-01T06:53:58;7.40;99.90
21259;DHT22;10787;53.364;-1.480;2023-02-01T06:56:24;7.40;99.90
21259;DHT22;10787;53.364;-1.480;2023-02-01T06:58:50;7.40;99.90
21259;DHT22;10787;53.364;-1.480;2023-02-01T07:01:16;7.40;99.90
21259;DHT22;10787;53.364;-1.480;2023-02-01T07:03:42;7.30;99.90
21259;DHT22;10787;53.364;-1.480;2023-02-01T07:06:08;7.30;99.90
21259;DHT22;10787;53.364;-1.480;2023-02-01T07:08:36;7.30;99.90
21259;DHT22;10787;53.364;-1.480;2023-02-01T07:11:13;7.30;99.90
21259;DHT22;10787;53.364;-1.480;2023-02-01T07:13:39;7.30;99.90
21259;DHT22;10787;53.364;-1.480;2023-02-01T07:16:09;7.30;99.90
21259;DHT22;10787;53.364;-1.480;2023-02-01T07:18:35;7.30;99.90
21259;DHT22;10787;53.364;-1.480;2023-02-01T07:21:01;7.30;99.90
21259;DHT22;10787;53.364;-1.480;2023-02-01T07:23:27;7.40;99.90
21259;DHT22;10787;53.364;-1.480;2023-02-01T07:25:58;7.40;99.90
21259;DHT22;10787;53.364;-1.480;2023-02-01T07:28:25;7.50;99.90
21259;DHT22;10787;53.364;-1.480;2023-02-01T07:30:51;7.60;99.90
21259;DHT22;10787;53.364;-1.480;2023-02-01T07:33:21;7.60;99.90
21259;DHT22;10787;53.364;-1.480;2023-02-01T07:35:48;7.60;99.90
21259;DHT22;10787;53.364;-1.480;2023-02-01T07:38:14;7.60;99.90
21259;DHT22;10787;53.364;-1.480;2023-02-01T07:40:41;7.60;99.90
21259;DHT22;10787;53.364;-1.480;2023-02-01T07:43:07;7.60;99.90
21259;DHT22;10787;53.364;-1.480;2023-02-01T07:45:34;7.50;99.90
21259;DHT22;10787;53.364;-1.480;2023-02-01T07:48:00;7.40;99.90
21259;DHT22;10787;53.364;-1.480;2023-02-01T07:50:26;7.30;99.90
21259;DHT22;10787;53.364;-1.480;2023-02-01T07:52:52;7.20;99.90
21259;DHT22;10787;53.364;-1.480;2023-02-01T07:55:19;7.10;99.90
21259;DHT22;10787;53.364;-1.480;2023-02-01T07:57:46;7.10;99.90
21259;DHT22;10787;53.364;-1.480;2023-02-01T08:00:12;7.10;99.90
21259;DHT22;10787;53.364;-1.480;2023-02-01T08:03:00;7.20;99.90
21259;DHT22;10787;53.364;-1.480;2023-02-01T08:05:26;7.20;99.90
21259;DHT22;10787;53.364;-1.480;2023-02-01T08:07:52;7.30;99.90
21259;DHT22;10787;53.364;-1.480;2023-02-01T08:10:19;7.30;99.90
21259;DHT22;10787;53.364;-1.480;2023-02-01T08:12:45;7.30;99.90
21259;DHT22;10787;53.364;-1.480;2023-02-01T08:15:16;7.30;99.90
21259;DHT22;10787;53.364;-1.480;2023-02-01T08:17:51;7.30;99.90
21259;DHT22;10787;53.364;-1.480;2023-02-01T08:20:18;7.40;99.90
21259;DHT22;10787;53.364;-1.480;2023-02-01T08:22:44;7.40;99.90
21259;DHT22;10787;53.364;-1.480;2023-02-01T08:25:10;7.40;99.90
21259;DHT22;10787;53.364;-1.480;2023-02-01T08:27:37;7.50;99.90
21259;DHT22;10787;53.364;-1.480;2023-02-01T08:30:04;7.60;99.90
21259;DHT22;10787;53.364;-1.480;2023-02-01T08:32:30;7.60;99.90
21259;DHT22;10787;53.364;-1.480;2023-02-01T08:34:56;7.60;99.90
21259;DHT22;10787;53.364;-1.480;2023-02-01T08:37:21;7.60;99.90
21259;DHT22;10787;53.364;-1.480;2023-02-01T08:39:48;7.60;99.90
21259;DHT22;10787;53.364;-1.480;2023-02-01T08:42:15;7.60;99.90
21259;DHT22;10787;53.364;-1.480;2023-02-01T08:44:59;7.60;99.90
21259;DHT22;10787;53.364;-1.480;2023-02-01T08:47:25;7.60;99.90
21259;DHT22;10787;53.364;-1.480;2023-02-01T08:49:51;7.60;99.90
21259;DHT22;10787;53.364;-1.480;2023-02-01T08:52:17;7.60;99.90
21259;DHT22;10787;53.364;-1.480;2023-02-01T08:54:42;7.70;99.90
21259;DHT22;10787;53.364;-1.480;2023-02-01T08:57:08;7.70;99.90
21259;DHT22;10787;53.364;-1.480;2023-02-01T08:59:35;7.70;99.90
21259;DHT22;10787;53.364;-1.480;2023-02-01T09:02:01;7.80;99.90
21259;DHT22;10787;53.364;-1.480;2023-02-01T09:04:26;8.00;99.90
21259;DHT22;10787;53.364;-1.480;2023-02-01T09:06:52;8.10;99.90
21259;DHT22;10787;53.364;-1.480;2023-02-01T09:09:21;8.20;99.90
21259;DHT22;10787;53.364;-1.480;2023-02-01T09:11:47;8.20;99.90
21259;DHT22;10787;53.364;-1.480;2023-02-01T09:14:13;8.30;99.90
21259;DHT22;10787;53.364;-1.480;2023-02-01T09:16:39;8.50;99.90
21259;DHT22;10787;53.364;-1.480;2023-02-01T09:19:04;8.60;99.90
21259;DHT22;10787;53.364;-1.480;2023-02-01T09:21:30;8.60;99.90
21259;DHT22;10787;53.364;-1.480;2023-02-01T09:23:56;8.70;99.90
21259;DHT22;10787;53.364;-1.480;2023-02-01T09:26:22;8.70;99.90
21259;DHT22;10787;53.364;-1.480;2023-02-01T09:28:47;8.70;99.90
21259;DHT22;10787;53.364;-1.480;2023-02-01T09:31:13;8.70;99.90
21259;DHT22;10787;53.364;-1.480;2023-02-01T09:33:39;8.70;99.90
21259;DHT22;10787;53.364;-1.480;2023-02-01T09:36:05;8.70;99.90
21259;DHT22;10787;53.364;-1.480;2023-02-01T09:38:31;8.70;99.90
21259;DHT22;10787;53.364;-1.480;2023-02-01T09:40:58;8.70;99.90
21259;DHT22;10787;53.364;-1.480;2023-02-01T09:43:38;8.70;99.90
21259;DHT22;10787;53.364;-1.480;2023-02-01T09:46:27;8.60;99.90
21259;DHT22;10787;53.364;-1.480;2023-02-01T09:48:55;8.60;99.90
21259;DHT22;10787;53.364;-1.480;2023-02-01T09:51:37;8.60;99.90
21259;DHT22;10787;53.364;-1.480;2023-02-01T09:54:08;8.60;99.90
21259;DHT22;10787;53.364;-1.480;2023-02-01T09:56:42;8.60;99.90
21259;DHT22;10787;53.364;-1.480;2023-02-01T10:01:45;8.60;99.90
21259;DHT22;10787;53.364;-1.480;2023-02-01T10:04:13;8.60;99.90
21259;DHT22;10787;53.364;-1.480;2023-02-01T10:20:26;9.10;99.90
21259;DHT22;10787;53.364;-1.480;2023-02-01T10:28:44;9.10;99.90
21259;DHT22;10787;53.364;-1.480;2023-02-01T10:31:11;9.10;99.90
21259;DHT22;10787;53.364;-1.480;2023-02-01T10:33:43;9.10;99.90
21259;DHT22;10787;53.364;-1.480;2023-02-01T10:36:23;9.10;99.90
21259;DHT22;10787;53.364;-1.480;2023-02-01T10:38:52;9.10;99.90
21259;DHT22;10787;53.364;-1.480;2023-02-01T10:41:22;9.10;99.90
21259;DHT22;10787;53.364;-1.480;2023-02-01T10:43:53;9.10;99.90
21259;DHT22;10787;53.364;-1.480;2023-02-01T10:46:20;9.10;99.90
21259;DHT22;10787;53.364;-1.480;2023-02-01T10:48:47;9.00;99.90
21259;DHT22;10787;53.364;-1.480;2023-02-01T10:56:14;9.00;99.90
21259;DHT22;10787;53.364;-1.480;2023-02-01T10:58:46;9.00;99.90
21259;DHT22;10787;53.364;-1.480;2023-02-01T11:01:34;9.00;99.90
21259;DHT22;10787;53.364;-1.480;2023-02-01T11:04:03;9.00;99.90
21259;DHT22;10787;53.364;-1.480;2023-02-01T11:06:40;9.00;99.90
21259;DHT22;10787;53.364;-1.480;2023-02-01T11:11:33;9.10;99.90
21259;DHT22;10787;53.364;-1.480;2023-02-01T11:16:52;9.20;99.90
21259;DHT22;10787;53.364;-1.480;2023-02-01T11:19:18;9.20;99.90
21259;DHT22;10787;53.364;-1.480;2023-02-01T11:21:44;9.30;99.90
21259;DHT22;10787;53.364;-1.480;2023-02-01T11:24:35;9.30;99.90
21259;DHT22;10787;53.364;-1.480;2023-02-01T11:27:04;9.30;99.90
21259;DHT22;10787;53.364;-1.480;2023-02-01T11:29:40;9.30;99.90
21259;DHT22;10787;53.364;-1.480;2023-02-01T11:32:08;9.20;99.90
21259;DHT22;10787;53.364;-1.480;2023-02-01T11:34:37;9.10;99.90
21259;DHT22;10787;53.364;-1.480;2023-02-01T11:37:04;9.00;99.90
21259;DHT22;10787;53.364;-1.480;2023-02-01T11:39:36;9.00;99.90
21259;DHT22;10787;53.364;-1.480;2023-02-01T11:42:15;9.00;99.90
21259;DHT22;10787;53.364;-1.480;2023-02-01T11:44:46;8.90;99.90
21259;DHT22;10787;53.364;-1.480;2023-02-01T11:47:29;9.00;99.90
21259;DHT22;10787;53.364;-1.480;2023-02-01T11:50:02;8.90;99.90
21259;DHT22;10787;53.364;-1.480;2023-02-01T12:09:15;9.30;99.90
21259;DHT22;10787;53.364;-1.480;2023-02-01T12:11:58;9.30;99.90
21259;DHT22;10787;53.364;-1.480;2023-02-01T12:14:50;9.50;99.90
21259;DHT22;10787;53.364;-1.480;2023-02-01T12:17:24;9.60;99.90
21259;DHT22;10787;53.364;-1.480;2023-02-01T12:20:14;9.60;99.90
21259;DHT22;10787;53.364;-1.480;2023-02-01T12:26:05;9.60;99.90
21259;DHT22;10787;53.364;-1.480;2023-02-01T12:43:12;9.50;99.90
21259;DHT22;10787;53.364;-1.480;2023-02-01T12:48:57;9.30;99.90
21259;DHT22;10787;53.364;-1.480;2023-02-01T12:51:27;9.40;99.90
21259;DHT22;10787;53.364;-1.480;2023-02-01T12:56:46;9.60;99.90
21259;DHT22;10787;53.364;-1.480;2023-02-01T12:59:39;9.70;99.90
21259;DHT22;10787;53.364;-1.480;2023-02-01T13:02:24;9.60;99.90
21259;DHT22;10787;53.364;-1.480;2023-02-01T13:05:11;9.60;99.90
21259;DHT22;10787;53.364;-1.480;2023-02-01T13:12:48;9.40;99.90
21259;DHT22;10787;53.364;-1.480;2023-02-01T13:17:47;9.00;99.90
21259;DHT22;10787;53.364;-1.480;2023-02-01T13:20:34;9.00;99.90
21259;DHT22;10787;53.364;-1.480;2023-02-01T13:23:14;9.00;99.90
21259;DHT22;10787;53.364;-1.480;2023-02-01T13:25:49;9.00;99.90
21259;DHT22;10787;53.364;-1.480;2023-02-01T13:41:27;8.90;99.90
21259;DHT22;10787;53.364;-1.480;2023-02-01T13:43:57;8.90;99.90
21259;DHT22;10787;53.364;-1.480;2023-02-01T13:46:24;8.90;99.90
21259;DHT22;10787;53.364;-1.480;2023-02-01T13:48:57;9.00;99.90
21259;DHT22;10787;53.364;-1.480;2023-02-01T13:51:45;9.00;99.90
21259;DHT22;10787;53.364;-1.480;2023-02-01T13:54:39;9.00;99.90
21259;DHT22;10787;53.364;-1.480;2023-02-01T13:57:14;9.00;99.90
21259;DHT22;10787;53.364;-1.480;2023-02-01T13:59:52;9.00;99.90
21259;DHT22;10787;53.364;-1.480;2023-02-01T14:05:10;9.30;99.90
21259;DHT22;10787;53.364;-1.480;2023-02-01T14:07:36;9.40;99.90
21259;DHT22;10787;53.364;-1.480;2023-02-01T14:23:45;9.20;99.90
21259;DHT22;10787;53.364;-1.480;2023-02-01T14:26:17;9.10;99.90
21259;DHT22;10787;53.364;-1.480;2023-02-01T14:31:34;9.10;99.90
21259;DHT22;10787;53.364;-1.480;2023-02-01T14:34:09;9.10;99.90
21259;DHT22;10787;53.364;-1.480;2023-02-01T14:36:49;9.20;99.90
21259;DHT22;10787;53.364;-1.480;2023-02-01T14:39:35;9.30;99.90
21259;DHT22;10787;53.364;-1.480;2023-02-01T14:47:53;9.30;99.90
21259;DHT22;10787;53.364;-1.480;2023-02-01T14:55:56;9.20;99.90
21259;DHT22;10787;53.364;-1.480;2023-02-01T14:58:50;9.10;99.90
21259;DHT22;10787;53.364;-1.480;2023-02-01T15:03:49;9.10;99.90
21259;DHT22;10787;53.364;-1.480;2023-02-01T15:08:55;9.10;99.90
21259;DHT22;10787;53.364;-1.480;2023-02-01T15:11:22;9.10;99.90
21259;DHT22;10787;53.364;-1.480;2023-02-01T15:13:53;9.00;99.90
21259;DHT22;10787;53.364;-1.480;2023-02-01T15:16:21;8.90;99.90
21259;DHT22;10787;53.364;-1.480;2023-02-01T15:18:48;8.90;99.90
21259;DHT22;10787;53.364;-1.480;2023-02-01T15:23:43;8.90;99.90
21259;DHT22;10787;53.364;-1.480;2023-02-01T15:26:21;8.90;99.90
21259;DHT22;10787;53.364;-1.480;2023-02-01T15:28:49;8.80;99.90
21259;DHT22;10787;53.364;-1.480;2023-02-01T15:31:15;8.80;99.90
21259;DHT22;10787;53.364;-1.480;2023-02-01T15:33:56;8.70;99.90
21259;DHT22;10787;53.364;-1.480;2023-02-01T15:36:22;8.60;99.90
21259;DHT22;10787;53.364;-1.480;2023-02-01T15:39:17;8.50;99.90
21259;DHT22;10787;53.364;-1.480;2023-02-01T15:42:20;8.50;99.90
21259;DHT22;10787;53.364;-1.480;2023-02-01T15:44:46;8.50;99.90
21259;DHT22;10787;53.364;-1.480;2023-02-01T15:47:17;8.40;99.90
21259;DHT22;10787;53.364;-1.480;2023-02-01T15:49:47;8.50;99.90
21259;DHT22;10787;53.364;-1.480;2023-02-01T15:52:34;8.50;99.90
21259;DHT22;10787;53.364;-1.480;2023-02-01T15:55:03;8.50;99.90
21259;DHT22;10787;53.364;-1.480;2023-02-01T15:57:34;8.60;99.90
21259;DHT22;10787;53.364;-1.480;2023-02-01T16:00:17;8.60;99.90
21259;DHT22;10787;53.364;-1.480;2023-02-01T16:03:00;8.70;99.90
21259;DHT22;10787;53.364;-1.480;2023-02-01T16:08:13;8.70;99.90
21259;DHT22;10787;53.364;-1.480;2023-02-01T16:10:43;8.70;99.90
21259;DHT22;10787;53.364;-1.480;2023-02-01T16:13:11;8.60;99.90
21259;DHT22;10787;53.364;-1.480;2023-02-01T16:15:38;8.60;99.90
21259;DHT22;10787;53.364;-1.480;2023-02-01T16:18:05;8.60;99.90
21259;DHT22;10787;53.364;-1.480;2023-02-01T16:20:33;8.70;99.90
21259;DHT22;10787;53.364;-1.480;2023-02-01T16:23:04;8.70;99.90
21259;DHT22;10787;53.364;-1.480;2023-02-01T16:25:30;8.80;99.90
21259;DHT22;10787;53.364;-1.480;2023-02-01T16:27:56;8.80;99.90
21259;DHT22;10787;53.364;-1.480;2023-02-01T16:30:22;8.90;99.90
21259;DHT22;10787;53.364;-1.480;2023-02-01T16:33:00;8.90;99.90
21259;DHT22;10787;53.364;-1.480;2023-02-01T16:35:34;9.00;99.90
21259;DHT22;10787;53.364;-1.480;2023-02-01T16:38:15;9.00;99.90
21259;DHT22;10787;53.364;-1.480;2023-02-01T16:40:44;9.00;99.90
21259;DHT22;10787;53.364;-1.480;2023-02-01T16:43:18;9.00;99.90
21259;DHT22;10787;53.364;-1.480;2023-02-01T16:45:45;9.00;99.90
21259;DHT22;10787;53.364;-1.480;2023-02-01T16:50:50;9.00;99.90
21259;DHT22;10787;53.364;-1.480;2023-02-01T16:53:18;9.00;99.90
21259;DHT22;10787;53.364;-1.480;2023-02-01T16:55:44;9.00;99.90
21259;DHT22;10787;53.364;-1.480;2023-02-01T16:58:12;8.90;99.90
21259;DHT22;10787;53.364;-1.480;2023-02-01T17:00:37;9.00;99.90
21259;DHT22;10787;53.364;-1.480;2023-02-01T17:03:04;9.00;99.90
21259;DHT22;10787;53.364;-1.480;2023-02-01T17:05:34;9.00;99.90
21259;DHT22;10787;53.364;-1.480;2023-02-01T17:08:03;9.00;99.90
21259;DHT22;10787;53.364;-1.480;2023-02-01T17:10:31;9.00;99.90
21259;DHT22;10787;53.364;-1.480;2023-02-01T17:12:56;9.00;99.90
21259;DHT22;10787;53.364;-1.480;2023-02-01T17:15:24;8.90;99.90
21259;DHT22;10787;53.364;-1.480;2023-02-01T17:17:51;8.80;99.90
21259;DHT22;10787;53.364;-1.480;2023-02-01T17:20:22;8.70;99.90
21259;DHT22;10787;53.364;-1.480;2023-02-01T17:22:50;8.70;99.90
21259;DHT22;10787;53.364;-1.480;2023-02-01T17:25:18;8.70;99.90
21259;DHT22;10787;53.364;-1.480;2023-02-01T17:27:44;8.60;99.90
21259;DHT22;10787;53.364;-1.480;2023-02-01T17:30:11;8.60;99.90
21259;DHT22;10787;53.364;-1.480;2023-02-01T17:32:37;8.50;99.90
21259;DHT22;10787;53.364;-1.480;2023-02-01T17:35:05;8.50;99.90
21259;DHT22;10787;53.364;-1.480;2023-02-01T17:37:33;8.50;99.90
21259;DHT22;10787;53.364;-1.480;2023-02-01T17:40:00;8.40;99.90
21259;DHT22;10787;53.364;-1.480;2023-02-01T17:42:28;8.40;99.90
21259;DHT22;10787;53.364;-1.480;2023-02-01T17:44:57;8.30;99.90
21259;DHT22;10787;53.364;-1.480;2023-02-01T17:47:23;8.30;99.90
21259;DHT22;10787;53.364;-1.480;2023-02-01T17:49:49;8.20;99.90
21259;DHT22;10787;53.364;-1.480;2023-02-01T17:52:22;8.20;99.90
21259;DHT22;10787;53.364;-1.480;2023-02-01T17:54:48;8.30;99.90
21259;DHT22;10787;53.364;-1.480;2023-02-01T17:57:16;8.30;99.90
21259;DHT22;10787;53.364;-1.480;2023-02-01T17:59:42;8.40;99.90
21259;DHT22;10787;53.364;-1.480;2023-02-01T18:02:19;8.30;99.90
21259;DHT22;10787;53.364;-1.480;2023-02-01T18:04:45;8.40;99.90
21259;DHT22;10787;53.364;-1.480;2023-02-01T18:07:10;8.50;99.90
21259;DHT22;10787;53.364;-1.480;2023-02-01T18:09:36;8.50;99.90
21259;DHT22;10787;53.364;-1.480;2023-02-01T18:12:04;8.60;99.90
21259;DHT22;10787;53.364;-1.480;2023-02-01T18:14:30;8.60;99.90
21259;DHT22;10787;53.364;-1.480;2023-02-01T18:16:56;8.60;99.90
21259;DHT22;10787;53.364;-1.480;2023-02-01T18:19:22;8.60;99.90
21259;DHT22;10787;53.364;-1.480;2023-02-01T18:21:48;8.60;99.90
21259;DHT22;10787;53.364;-1.480;2023-02-01T18:24:15;8.60;99.90
21259;DHT22;10787;53.364;-1.480;2023-02-01T18:26:42;8.70;99.90
21259;DHT22;10787;53.364;-1.480;2023-02-01T18:29:08;8.70;99.90
21259;DHT22;10787;53.364;-1.480;2023-02-01T18:31:36;8.80;99.90
21259;DHT22;10787;53.364;-1.480;2023-02-01T18:34:08;8.80;99.90
21259;DHT22;10787;53.364;-1.480;2023-02-01T18:36:34;8.70;99.90
21259;DHT22;10787;53.364;-1.480;2023-02-01T18:39:00;8.70;99.90